Snow Hill, Indiana
Current Conditions -  °F | °C
As of 7:42 AM on Monday 24 Nov 2014 (Local Time) from KMIE Reporting Station
Light Rain Light Rain  
Wind Chill: 56°   Ceiling: 6500
Heat Index: 56°   Visibility: 7mi
Dew Point: 50°   Wind: 25mph
Humidity: 80%   Direction: 210°SSW
Pressure: 29.16"   Gusts: 40mph
Location:  40.1634°N, 85.045°W
Report Text: KMIE 241242Z 21022G35KT 7SM -RA BKN065 OVC080 13/10 A2916 RMK AO2 PK WND 21035/1236 LTG DSNT E-S RAB06 P0002 T01330100
Loading
Personal Weather Stations






























Interactive Weather Map New forecast layout! Learn more

10-Day Weather Forecast

Advertisements
Track Severe Weather on mobile